sensor_id;sensor_type;location;lat;lon;timestamp;P1;durP1;ratioP1;P2;durP2;ratioP2
13114;SDS011;6623;52.120;8.660;2023-08-06T00:01:49;1.10;;;1.00;;
13114;SDS011;6623;52.120;8.660;2023-08-06T00:04:15;1.20;;;1.10;;
13114;SDS011;6623;52.120;8.660;2023-08-06T00:06:40;1.20;;;1.10;;
13114;SDS011;6623;52.120;8.660;2023-08-06T00:09:06;1.07;;;0.97;;
13114;SDS011;6623;52.120;8.660;2023-08-06T00:11:31;1.50;;;1.20;;
13114;SDS011;6623;52.120;8.660;2023-08-06T00:13:57;1.30;;;1.20;;
13114;SDS011;6623;52.120;8.660;2023-08-06T00:16:22;1.70;;;1.20;;
13114;SDS011;6623;52.120;8.660;2023-08-06T00:18:48;1.40;;;1.10;;
13114;SDS011;6623;52.120;8.660;2023-08-06T00:21:13;1.43;;;1.10;;
13114;SDS011;6623;52.120;8.660;2023-08-06T00:23:39;1.13;;;1.03;;
13114;SDS011;6623;52.120;8.660;2023-08-06T00:26:06;1.30;;;1.00;;
13114;SDS011;6623;52.120;8.660;2023-08-06T00:28:31;1.43;;;1.10;;
13114;SDS011;6623;52.120;8.660;2023-08-06T00:30:57;1.63;;;1.10;;
13114;SDS011;6623;52.120;8.660;2023-08-06T00:33:22;2.50;;;1.10;;
13114;SDS011;6623;52.120;8.660;2023-08-06T00:35:48;1.20;;;1.00;;
13114;SDS011;6623;52.120;8.660;2023-08-06T00:38:14;1.07;;;1.00;;
13114;SDS011;6623;52.120;8.660;2023-08-06T00:40:40;1.03;;;0.93;;
13114;SDS011;6623;52.120;8.660;2023-08-06T00:43:05;1.10;;;1.00;;
13114;SDS011;6623;52.120;8.660;2023-08-06T00:45:33;1.70;;;1.13;;
13114;SDS011;6623;52.120;8.660;2023-08-06T00:47:59;0.93;;;0.93;;
13114;SDS011;6623;52.120;8.660;2023-08-06T00:50:26;1.10;;;1.00;;
13114;SDS011;6623;52.120;8.660;2023-08-06T00:52:52;1.10;;;1.00;;
13114;SDS011;6623;52.120;8.660;2023-08-06T00:55:18;1.10;;;1.00;;
13114;SDS011;6623;52.120;8.660;2023-08-06T00:57:43;1.07;;;0.90;;
13114;SDS011;6623;52.120;8.660;2023-08-06T01:00:09;1.30;;;1.00;;
13114;SDS011;6623;52.120;8.660;2023-08-06T01:02:35;1.17;;;0.93;;
13114;SDS011;6623;52.120;8.660;2023-08-06T01:05:02;1.00;;;0.90;;
13114;SDS011;6623;52.120;8.660;2023-08-06T01:15:33;1.20;;;1.10;;
13114;SDS011;6623;52.120;8.660;2023-08-06T01:18:04;1.10;;;1.00;;
13114;SDS011;6623;52.120;8.660;2023-08-06T01:20:30;1.00;;;0.90;;
13114;SDS011;6623;52.120;8.660;2023-08-06T01:22:56;1.60;;;1.00;;
13114;SDS011;6623;52.120;8.660;2023-08-06T01:25:22;1.63;;;1.00;;
13114;SDS011;6623;52.120;8.660;2023-08-06T01:28:11;1.10;;;1.00;;
13114;SDS011;6623;52.120;8.660;2023-08-06T01:30:45;1.10;;;1.00;;
13114;SDS011;6623;52.120;8.660;2023-08-06T01:33:14;1.17;;;1.07;;
13114;SDS011;6623;52.120;8.660;2023-08-06T01:35:44;1.90;;;1.00;;
13114;SDS011;6623;52.120;8.660;2023-08-06T01:38:11;1.33;;;1.00;;
13114;SDS011;6623;52.120;8.660;2023-08-06T01:40:36;1.00;;;1.00;;
13114;SDS011;6623;52.120;8.660;2023-08-06T01:43:02;1.20;;;1.10;;
13114;SDS011;6623;52.120;8.660;2023-08-06T01:45:28;1.10;;;1.00;;
13114;SDS011;6623;52.120;8.660;2023-08-06T01:47:53;1.10;;;1.00;;
13114;SDS011;6623;52.120;8.660;2023-08-06T01:50:19;1.80;;;1.00;;
13114;SDS011;6623;52.120;8.660;2023-08-06T01:52:44;1.00;;;0.90;;
13114;SDS011;6623;52.120;8.660;2023-08-06T01:55:10;1.03;;;0.93;;
13114;SDS011;6623;52.120;8.660;2023-08-06T01:57:35;1.40;;;1.00;;
13114;SDS011;6623;52.120;8.660;2023-08-06T02:00:01;1.30;;;1.00;;
13114;SDS011;6623;52.120;8.660;2023-08-06T02:02:27;1.23;;;1.00;;
13114;SDS011;6623;52.120;8.660;2023-08-06T02:04:53;1.10;;;1.00;;
13114;SDS011;6623;52.120;8.660;2023-08-06T02:07:18;1.13;;;1.03;;
13114;SDS011;6623;52.120;8.660;2023-08-06T02:09:44;1.00;;;0.90;;
13114;SDS011;6623;52.120;8.660;2023-08-06T02:12:09;1.17;;;1.07;;
13114;SDS011;6623;52.120;8.660;2023-08-06T02:14:35;1.00;;;0.90;;
13114;SDS011;6623;52.120;8.660;2023-08-06T02:17:00;1.00;;;0.93;;
13114;SDS011;6623;52.120;8.660;2023-08-06T02:19:26;1.07;;;0.90;;
13114;SDS011;6623;52.120;8.660;2023-08-06T02:21:51;2.30;;;0.90;;
13114;SDS011;6623;52.120;8.660;2023-08-06T02:24:17;2.90;;;0.80;;
13114;SDS011;6623;52.120;8.660;2023-08-06T02:26:42;1.13;;;1.00;;
13114;SDS011;6623;52.120;8.660;2023-08-06T02:29:08;1.57;;;0.83;;
13114;SDS011;6623;52.120;8.660;2023-08-06T02:31:33;1.00;;;0.90;;
13114;SDS011;6623;52.120;8.660;2023-08-06T02:33:59;0.93;;;0.90;;
13114;SDS011;6623;52.120;8.660;2023-08-06T02:36:24;1.40;;;1.10;;
13114;SDS011;6623;52.120;8.660;2023-08-06T02:38:54;1.10;;;1.00;;
13114;SDS011;6623;52.120;8.660;2023-08-06T02:41:20;0.83;;;0.83;;
13114;SDS011;6623;52.120;8.660;2023-08-06T02:43:45;1.37;;;1.10;;
13114;SDS011;6623;52.120;8.660;2023-08-06T02:46:11;2.07;;;0.90;;
13114;SDS011;6623;52.120;8.660;2023-08-06T02:48:36;1.00;;;0.90;;
13114;SDS011;6623;52.120;8.660;2023-08-06T02:51:02;1.10;;;0.87;;
13114;SDS011;6623;52.120;8.660;2023-08-06T02:53:27;1.10;;;1.00;;
13114;SDS011;6623;52.120;8.660;2023-08-06T02:55:53;1.07;;;0.97;;
13114;SDS011;6623;52.120;8.660;2023-08-06T02:58:19;0.97;;;0.70;;
13114;SDS011;6623;52.120;8.660;2023-08-06T03:00:58;1.20;;;1.10;;
13114;SDS011;6623;52.120;8.660;2023-08-06T03:03:28;1.40;;;0.90;;
13114;SDS011;6623;52.120;8.660;2023-08-06T03:05:54;1.53;;;1.00;;
13114;SDS011;6623;52.120;8.660;2023-08-06T03:08:20;1.47;;;0.90;;
13114;SDS011;6623;52.120;8.660;2023-08-06T03:10:47;1.97;;;0.90;;
13114;SDS011;6623;52.120;8.660;2023-08-06T03:13:13;0.90;;;0.90;;
13114;SDS011;6623;52.120;8.660;2023-08-06T03:15:39;1.30;;;0.90;;
13114;SDS011;6623;52.120;8.660;2023-08-06T03:18:05;1.77;;;1.10;;
13114;SDS011;6623;52.120;8.660;2023-08-06T03:20:31;0.77;;;0.73;;
13114;SDS011;6623;52.120;8.660;2023-08-06T03:22:57;0.80;;;0.80;;
13114;SDS011;6623;52.120;8.660;2023-08-06T03:25:23;1.30;;;1.00;;
13114;SDS011;6623;52.120;8.660;2023-08-06T03:27:48;0.83;;;0.83;;
13114;SDS011;6623;52.120;8.660;2023-08-06T03:30:14;0.93;;;0.90;;
13114;SDS011;6623;52.120;8.660;2023-08-06T03:32:40;1.07;;;0.90;;
13114;SDS011;6623;52.120;8.660;2023-08-06T03:35:05;1.00;;;0.90;;
13114;SDS011;6623;52.120;8.660;2023-08-06T03:37:31;1.60;;;0.97;;
13114;SDS011;6623;52.120;8.660;2023-08-06T03:39:57;1.20;;;0.90;;
13114;SDS011;6623;52.120;8.660;2023-08-06T03:42:22;1.00;;;0.90;;
13114;SDS011;6623;52.120;8.660;2023-08-06T03:44:48;1.50;;;1.00;;
13114;SDS011;6623;52.120;8.660;2023-08-06T03:47:13;0.87;;;0.80;;
13114;SDS011;6623;52.120;8.660;2023-08-06T03:49:39;0.97;;;0.97;;
13114;SDS011;6623;52.120;8.660;2023-08-06T03:52:05;1.77;;;0.93;;
13114;SDS011;6623;52.120;8.660;2023-08-06T03:54:30;0.90;;;0.90;;
13114;SDS011;6623;52.120;8.660;2023-08-06T03:56:56;0.97;;;0.90;;
13114;SDS011;6623;52.120;8.660;2023-08-06T03:59:22;1.27;;;0.83;;
13114;SDS011;6623;52.120;8.660;2023-08-06T04:01:47;1.00;;;0.90;;
13114;SDS011;6623;52.120;8.660;2023-08-06T04:04:13;0.93;;;0.90;;
13114;SDS011;6623;52.120;8.660;2023-08-06T04:06:38;1.03;;;0.93;;
13114;SDS011;6623;52.120;8.660;2023-08-06T04:09:04;1.10;;;1.00;;
13114;SDS011;6623;52.120;8.660;2023-08-06T04:11:29;1.03;;;0.90;;
13114;SDS011;6623;52.120;8.660;2023-08-06T04:13:55;1.30;;;0.90;;
13114;SDS011;6623;52.120;8.660;2023-08-06T04:16:20;0.90;;;0.90;;
13114;SDS011;6623;52.120;8.660;2023-08-06T04:18:46;1.47;;;1.00;;
13114;SDS011;6623;52.120;8.660;2023-08-06T04:21:12;1.27;;;1.00;;
13114;SDS011;6623;52.120;8.660;2023-08-06T04:23:37;1.10;;;1.00;;
13114;SDS011;6623;52.120;8.660;2023-08-06T04:26:03;1.20;;;0.97;;
13114;SDS011;6623;52.120;8.660;2023-08-06T04:28:29;1.13;;;0.97;;
13114;SDS011;6623;52.120;8.660;2023-08-06T04:30:55;0.83;;;0.83;;
13114;SDS011;6623;52.120;8.660;2023-08-06T04:33:20;0.73;;;0.73;;
13114;SDS011;6623;52.120;8.660;2023-08-06T04:35:46;1.20;;;1.00;;
13114;SDS011;6623;52.120;8.660;2023-08-06T04:38:12;0.93;;;0.80;;
13114;SDS011;6623;52.120;8.660;2023-08-06T04:40:37;1.43;;;1.00;;
13114;SDS011;6623;52.120;8.660;2023-08-06T04:43:03;1.20;;;1.00;;
13114;SDS011;6623;52.120;8.660;2023-08-06T04:45:28;0.93;;;0.73;;
13114;SDS011;6623;52.120;8.660;2023-08-06T04:47:54;1.87;;;0.97;;
13114;SDS011;6623;52.120;8.660;2023-08-06T04:50:20;1.10;;;1.00;;
13114;SDS011;6623;52.120;8.660;2023-08-06T04:52:45;0.90;;;0.83;;
13114;SDS011;6623;52.120;8.660;2023-08-06T04:55:11;0.80;;;0.80;;
13114;SDS011;6623;52.120;8.660;2023-08-06T04:57:37;2.40;;;0.90;;
13114;SDS011;6623;52.120;8.660;2023-08-06T05:00:02;0.80;;;0.80;;
13114;SDS011;6623;52.120;8.660;2023-08-06T05:02:29;0.90;;;0.80;;
13114;SDS011;6623;52.120;8.660;2023-08-06T05:04:57;0.80;;;0.80;;
13114;SDS011;6623;52.120;8.660;2023-08-06T05:07:23;0.93;;;0.83;;
13114;SDS011;6623;52.120;8.660;2023-08-06T05:09:48;1.10;;;1.00;;
13114;SDS011;6623;52.120;8.660;2023-08-06T05:12:14;0.93;;;0.93;;
13114;SDS011;6623;52.120;8.660;2023-08-06T05:14:40;1.10;;;0.90;;
13114;SDS011;6623;52.120;8.660;2023-08-06T05:17:05;1.60;;;1.10;;
13114;SDS011;6623;52.120;8.660;2023-08-06T05:19:31;1.90;;;0.83;;
13114;SDS011;6623;52.120;8.660;2023-08-06T05:21:56;1.00;;;0.90;;
13114;SDS011;6623;52.120;8.660;2023-08-06T05:24:22;0.90;;;0.90;;
13114;SDS011;6623;52.120;8.660;2023-08-06T05:26:47;0.80;;;0.80;;
13114;SDS011;6623;52.120;8.660;2023-08-06T05:29:13;1.57;;;1.00;;
13114;SDS011;6623;52.120;8.660;2023-08-06T05:31:39;1.03;;;0.80;;
13114;SDS011;6623;52.120;8.660;2023-08-06T05:34:04;0.80;;;0.80;;
13114;SDS011;6623;52.120;8.660;2023-08-06T05:36:30;0.83;;;0.83;;
13114;SDS011;6623;52.120;8.660;2023-08-06T05:38:56;0.90;;;0.90;;
13114;SDS011;6623;52.120;8.660;2023-08-06T05:41:21;0.97;;;0.90;;
13114;SDS011;6623;52.120;8.660;2023-08-06T05:43:47;1.03;;;0.83;;
13114;SDS011;6623;52.120;8.660;2023-08-06T05:46:12;1.10;;;1.00;;
13114;SDS011;6623;52.120;8.660;2023-08-06T05:48:38;1.37;;;1.00;;
13114;SDS011;6623;52.120;8.660;2023-08-06T05:51:03;1.00;;;0.90;;
13114;SDS011;6623;52.120;8.660;2023-08-06T05:53:29;0.90;;;0.90;;
13114;SDS011;6623;52.120;8.660;2023-08-06T05:55:54;0.90;;;0.90;;
13114;SDS011;6623;52.120;8.660;2023-08-06T05:58:20;1.37;;;0.70;;
13114;SDS011;6623;52.120;8.660;2023-08-06T06:00:45;1.10;;;1.00;;
13114;SDS011;6623;52.120;8.660;2023-08-06T06:03:11;1.00;;;0.90;;
13114;SDS011;6623;52.120;8.660;2023-08-06T06:05:39;1.00;;;0.80;;
13114;SDS011;6623;52.120;8.660;2023-08-06T06:08:05;0.90;;;0.90;;
13114;SDS011;6623;52.120;8.660;2023-08-06T06:10:30;1.10;;;0.90;;
13114;SDS011;6623;52.120;8.660;2023-08-06T06:12:56;1.20;;;0.90;;
13114;SDS011;6623;52.120;8.660;2023-08-06T06:15:22;1.17;;;0.90;;
13114;SDS011;6623;52.120;8.660;2023-08-06T06:17:47;1.27;;;0.90;;
13114;SDS011;6623;52.120;8.660;2023-08-06T06:20:13;1.10;;;1.00;;
13114;SDS011;6623;52.120;8.660;2023-08-06T06:22:38;0.80;;;0.80;;
13114;SDS011;6623;52.120;8.660;2023-08-06T06:25:04;1.10;;;1.00;;
13114;SDS011;6623;52.120;8.660;2023-08-06T06:27:30;0.93;;;0.83;;
13114;SDS011;6623;52.120;8.660;2023-08-06T06:29:56;0.80;;;0.80;;
13114;SDS011;6623;52.120;8.660;2023-08-06T06:32:21;0.80;;;0.80;;
13114;SDS011;6623;52.120;8.660;2023-08-06T06:34:47;0.80;;;0.80;;
13114;SDS011;6623;52.120;8.660;2023-08-06T06:37:13;0.73;;;0.73;;
13114;SDS011;6623;52.120;8.660;2023-08-06T06:39:38;1.10;;;0.80;;
13114;SDS011;6623;52.120;8.660;2023-08-06T06:42:04;0.90;;;0.80;;
13114;SDS011;6623;52.120;8.660;2023-08-06T06:44:30;2.77;;;0.90;;
13114;SDS011;6623;52.120;8.660;2023-08-06T06:46:55;1.63;;;1.00;;
13114;SDS011;6623;52.120;8.660;2023-08-06T06:49:21;1.07;;;0.97;;
13114;SDS011;6623;52.120;8.660;2023-08-06T06:51:46;1.00;;;0.90;;
13114;SDS011;6623;52.120;8.660;2023-08-06T06:54:12;0.90;;;0.80;;
13114;SDS011;6623;52.120;8.660;2023-08-06T06:56:37;0.90;;;0.90;;
13114;SDS011;6623;52.120;8.660;2023-08-06T06:59:03;0.73;;;0.73;;
13114;SDS011;6623;52.120;8.660;2023-08-06T07:01:28;0.90;;;0.70;;
13114;SDS011;6623;52.120;8.660;2023-08-06T07:03:54;0.97;;;0.90;;
13114;SDS011;6623;52.120;8.660;2023-08-06T07:06:21;0.80;;;0.80;;
13114;SDS011;6623;52.120;8.660;2023-08-06T07:08:46;0.70;;;0.70;;
13114;SDS011;6623;52.120;8.660;2023-08-06T07:11:12;1.33;;;0.90;;
13114;SDS011;6623;52.120;8.660;2023-08-06T07:13:37;1.07;;;0.80;;
13114;SDS011;6623;52.120;8.660;2023-08-06T07:16:03;0.90;;;0.80;;
13114;SDS011;6623;52.120;8.660;2023-08-06T07:18:28;1.00;;;0.90;;
13114;SDS011;6623;52.120;8.660;2023-08-06T07:20:54;1.60;;;0.70;;
13114;SDS011;6623;52.120;8.660;2023-08-06T07:23:20;0.90;;;0.90;;
13114;SDS011;6623;52.120;8.660;2023-08-06T07:25:48;0.87;;;0.80;;
13114;SDS011;6623;52.120;8.660;2023-08-06T07:28:14;0.90;;;0.90;;
13114;SDS011;6623;52.120;8.660;2023-08-06T07:30:41;1.00;;;0.90;;
13114;SDS011;6623;52.120;8.660;2023-08-06T07:33:07;1.27;;;1.17;;
13114;SDS011;6623;52.120;8.660;2023-08-06T07:35:33;1.03;;;0.80;;
13114;SDS011;6623;52.120;8.660;2023-08-06T07:37:59;1.10;;;1.00;;
13114;SDS011;6623;52.120;8.660;2023-08-06T07:40:24;0.70;;;0.70;;
13114;SDS011;6623;52.120;8.660;2023-08-06T07:42:50;1.50;;;0.90;;
13114;SDS011;6623;52.120;8.660;2023-08-06T07:45:15;1.37;;;0.90;;
13114;SDS011;6623;52.120;8.660;2023-08-06T07:47:41;1.00;;;0.83;;
13114;SDS011;6623;52.120;8.660;2023-08-06T07:50:08;1.90;;;0.90;;
13114;SDS011;6623;52.120;8.660;2023-08-06T07:52:34;3.30;;;1.10;;
13114;SDS011;6623;52.120;8.660;2023-08-06T07:54:59;1.47;;;0.93;;
13114;SDS011;6623;52.120;8.660;2023-08-06T07:57:26;1.60;;;1.00;;
13114;SDS011;6623;52.120;8.660;2023-08-06T07:59:52;1.93;;;0.97;;
13114;SDS011;6623;52.120;8.660;2023-08-06T08:02:18;1.90;;;1.10;;
13114;SDS011;6623;52.120;8.660;2023-08-06T08:04:44;1.23;;;1.10;;
13114;SDS011;6623;52.120;8.660;2023-08-06T08:07:12;4.30;;;1.07;;
13114;SDS011;6623;52.120;8.660;2023-08-06T08:09:38;1.03;;;0.87;;
13114;SDS011;6623;52.120;8.660;2023-08-06T08:12:03;1.60;;;0.93;;
13114;SDS011;6623;52.120;8.660;2023-08-06T08:14:29;1.50;;;1.00;;
13114;SDS011;6623;52.120;8.660;2023-08-06T08:17:00;1.80;;;1.10;;
13114;SDS011;6623;52.120;8.660;2023-08-06T08:19:27;2.47;;;1.10;;
13114;SDS011;6623;52.120;8.660;2023-08-06T08:21:53;2.97;;;1.00;;
13114;SDS011;6623;52.120;8.660;2023-08-06T08:24:19;1.27;;;0.90;;
13114;SDS011;6623;52.120;8.660;2023-08-06T08:26:45;1.70;;;1.00;;
13114;SDS011;6623;52.120;8.660;2023-08-06T08:29:10;1.43;;;0.97;;
13114;SDS011;6623;52.120;8.660;2023-08-06T08:31:36;2.67;;;1.10;;
13114;SDS011;6623;52.120;8.660;2023-08-06T08:34:04;1.20;;;1.00;;
13114;SDS011;6623;52.120;8.660;2023-08-06T08:36:30;1.70;;;1.20;;
13114;SDS011;6623;52.120;8.660;2023-08-06T08:38:56;1.00;;;0.90;;
13114;SDS011;6623;52.120;8.660;2023-08-06T08:41:22;3.17;;;1.00;;
13114;SDS011;6623;52.120;8.660;2023-08-06T08:43:48;1.10;;;1.00;;
13114;SDS011;6623;52.120;8.660;2023-08-06T08:46:17;2.53;;;1.17;;
13114;SDS011;6623;52.120;8.660;2023-08-06T08:48:43;1.30;;;0.97;;
13114;SDS011;6623;52.120;8.660;2023-08-06T08:51:09;2.17;;;1.20;;
13114;SDS011;6623;52.120;8.660;2023-08-06T08:53:36;1.57;;;1.10;;
13114;SDS011;6623;52.120;8.660;2023-08-06T08:56:04;1.80;;;1.00;;
13114;SDS011;6623;52.120;8.660;2023-08-06T08:58:30;1.27;;;1.00;;
13114;SDS011;6623;52.120;8.660;2023-08-06T09:00:56;1.97;;;1.00;;
13114;SDS011;6623;52.120;8.660;2023-08-06T09:03:22;2.00;;;1.00;;
13114;SDS011;6623;52.120;8.660;2023-08-06T09:05:49;1.80;;;1.00;;
13114;SDS011;6623;52.120;8.660;2023-08-06T09:08:18;1.57;;;1.20;;
13114;SDS011;6623;52.120;8.660;2023-08-06T09:10:49;1.53;;;1.10;;
13114;SDS011;6623;52.120;8.660;2023-08-06T09:13:15;2.13;;;1.00;;
13114;SDS011;6623;52.120;8.660;2023-08-06T09:15:41;2.40;;;1.10;;
13114;SDS011;6623;52.120;8.660;2023-08-06T09:18:09;1.50;;;1.17;;
13114;SDS011;6623;52.120;8.660;2023-08-06T09:20:36;1.40;;;1.00;;
13114;SDS011;6623;52.120;8.660;2023-08-06T09:23:09;1.43;;;1.00;;
13114;SDS011;6623;52.120;8.660;2023-08-06T09:25:39;2.73;;;1.00;;
13114;SDS011;6623;52.120;8.660;2023-08-06T09:28:07;2.00;;;0.90;;
13114;SDS011;6623;52.120;8.660;2023-08-06T09:30:34;1.90;;;1.00;;
13114;SDS011;6623;52.120;8.660;2023-08-06T09:33:01;2.27;;;1.10;;
13114;SDS011;6623;52.120;8.660;2023-08-06T09:35:28;1.40;;;1.03;;
13114;SDS011;6623;52.120;8.660;2023-08-06T09:37:55;1.70;;;1.10;;
13114;SDS011;6623;52.120;8.660;2023-08-06T09:40:24;3.17;;;1.17;;
13114;SDS011;6623;52.120;8.660;2023-08-06T09:42:54;4.30;;;1.30;;
13114;SDS011;6623;52.120;8.660;2023-08-06T09:45:21;3.17;;;1.30;;
13114;SDS011;6623;52.120;8.660;2023-08-06T09:47:47;2.90;;;1.20;;
13114;SDS011;6623;52.120;8.660;2023-08-06T09:50:17;3.90;;;1.27;;
13114;SDS011;6623;52.120;8.660;2023-08-06T09:52:43;13.77;;;1.80;;
13114;SDS011;6623;52.120;8.660;2023-08-06T09:55:13;15.23;;;1.97;;
13114;SDS011;6623;52.120;8.660;2023-08-06T09:57:42;8.23;;;1.70;;
13114;SDS011;6623;52.120;8.660;2023-08-06T10:00:11;7.53;;;1.40;;
13114;SDS011;6623;52.120;8.660;2023-08-06T10:02:37;6.60;;;1.40;;
13114;SDS011;6623;52.120;8.660;2023-08-06T10:05:04;6.77;;;1.60;;
13114;SDS011;6623;52.120;8.660;2023-08-06T10:07:30;8.40;;;1.47;;
13114;SDS011;6623;52.120;8.660;2023-08-06T10:09:56;4.83;;;1.30;;
13114;SDS011;6623;52.120;8.660;2023-08-06T10:12:23;4.30;;;1.20;;
13114;SDS011;6623;52.120;8.660;2023-08-06T10:14:50;5.60;;;1.40;;
13114;SDS011;6623;52.120;8.660;2023-08-06T10:17:19;8.27;;;1.47;;
13114;SDS011;6623;52.120;8.660;2023-08-06T10:19:46;5.67;;;1.40;;
13114;SDS011;6623;52.120;8.660;2023-08-06T10:22:14;5.07;;;1.57;;
13114;SDS011;6623;52.120;8.660;2023-08-06T10:24:48;3.40;;;1.53;;
13114;SDS011;6623;52.120;8.660;2023-08-06T10:27:30;6.00;;;1.40;;
13114;SDS011;6623;52.120;8.660;2023-08-06T10:33:03;4.07;;;1.40;;
13114;SDS011;6623;52.120;8.660;2023-08-06T10:35:42;4.77;;;1.50;;
13114;SDS011;6623;52.120;8.660;2023-08-06T10:38:22;4.73;;;1.60;;
13114;SDS011;6623;52.120;8.660;2023-08-06T10:43:25;4.37;;;1.30;;
13114;SDS011;6623;52.120;8.660;2023-08-06T10:45:52;3.10;;;1.30;;
13114;SDS011;6623;52.120;8.660;2023-08-06T10:51:01;3.80;;;1.33;;
13114;SDS011;6623;52.120;8.660;2023-08-06T10:53:29;8.20;;;1.70;;
13114;SDS011;6623;52.120;8.660;2023-08-06T10:55:55;6.60;;;1.87;;
13114;SDS011;6623;52.120;8.660;2023-08-06T10:58:20;4.47;;;1.60;;
13114;SDS011;6623;52.120;8.660;2023-08-06T11:00:46;9.50;;;1.97;;
13114;SDS011;6623;52.120;8.660;2023-08-06T11:03:12;4.50;;;1.50;;
13114;SDS011;6623;52.120;8.660;2023-08-06T11:05:38;7.73;;;1.60;;
13114;SDS011;6623;52.120;8.660;2023-08-06T11:08:04;3.83;;;1.50;;
13114;SDS011;6623;52.120;8.660;2023-08-06T11:10:32;3.93;;;1.60;;
13114;SDS011;6623;52.120;8.660;2023-08-06T11:13:01;6.03;;;1.60;;
13114;SDS011;6623;52.120;8.660;2023-08-06T11:15:29;4.10;;;1.50;;
13114;SDS011;6623;52.120;8.660;2023-08-06T11:17:55;4.17;;;1.80;;
13114;SDS011;6623;52.120;8.660;2023-08-06T11:20:21;4.90;;;1.70;;
13114;SDS011;6623;52.120;8.660;2023-08-06T11:22:47;5.60;;;1.80;;
13114;SDS011;6623;52.120;8.660;2023-08-06T11:25:13;4.23;;;1.50;;
13114;SDS011;6623;52.120;8.660;2023-08-06T11:27:38;7.23;;;1.77;;
13114;SDS011;6623;52.120;8.660;2023-08-06T11:30:04;5.60;;;2.03;;
13114;SDS011;6623;52.120;8.660;2023-08-06T11:32:30;7.73;;;1.97;;
13114;SDS011;6623;52.120;8.660;2023-08-06T11:34:56;5.77;;;1.67;;
13114;SDS011;6623;52.120;8.660;2023-08-06T11:37:22;5.10;;;1.70;;
13114;SDS011;6623;52.120;8.660;2023-08-06T11:39:49;2.87;;;1.40;;
13114;SDS011;6623;52.120;8.660;2023-08-06T11:42:15;2.97;;;1.60;;
13114;SDS011;6623;52.120;8.660;2023-08-06T11:44:41;8.70;;;1.80;;
13114;SDS011;6623;52.120;8.660;2023-08-06T11:47:11;5.30;;;1.50;;
13114;SDS011;6623;52.120;8.660;2023-08-06T11:54:37;6.30;;;2.13;;
13114;SDS011;6623;52.120;8.660;2023-08-06T11:57:03;5.77;;;1.80;;
13114;SDS011;6623;52.120;8.660;2023-08-06T11:59:32;3.27;;;1.60;;
13114;SDS011;6623;52.120;8.660;2023-08-06T12:01:57;3.23;;;1.60;;
13114;SDS011;6623;52.120;8.660;2023-08-06T12:04:25;4.10;;;1.47;;
13114;SDS011;6623;52.120;8.660;2023-08-06T12:06:50;4.70;;;1.77;;
13114;SDS011;6623;52.120;8.660;2023-08-06T12:09:16;3.33;;;1.63;;
13114;SDS011;6623;52.120;8.660;2023-08-06T12:11:42;2.87;;;1.50;;
13114;SDS011;6623;52.120;8.660;2023-08-06T12:14:07;4.23;;;1.60;;
13114;SDS011;6623;52.120;8.660;2023-08-06T12:16:33;4.47;;;1.60;;
13114;SDS011;6623;52.120;8.660;2023-08-06T12:18:59;2.80;;;1.63;;
13114;SDS011;6623;52.120;8.660;2023-08-06T12:21:24;4.60;;;1.70;;
13114;SDS011;6623;52.120;8.660;2023-08-06T12:23:50;3.20;;;1.77;;
13114;SDS011;6623;52.120;8.660;2023-08-06T12:26:15;3.63;;;1.53;;
13114;SDS011;6623;52.120;8.660;2023-08-06T12:28:41;2.83;;;1.67;;
13114;SDS011;6623;52.120;8.660;2023-08-06T12:31:06;4.27;;;1.73;;
13114;SDS011;6623;52.120;8.660;2023-08-06T12:33:32;1.90;;;1.30;;
13114;SDS011;6623;52.120;8.660;2023-08-06T12:35:57;2.10;;;1.47;;
13114;SDS011;6623;52.120;8.660;2023-08-06T12:38:23;1.83;;;1.50;;
13114;SDS011;6623;52.120;8.660;2023-08-06T12:40:49;3.13;;;1.70;;
13114;SDS011;6623;52.120;8.660;2023-08-06T12:43:14;4.20;;;1.57;;
13114;SDS011;6623;52.120;8.660;2023-08-06T12:45:40;2.77;;;1.77;;
13114;SDS011;6623;52.120;8.660;2023-08-06T12:48:06;3.27;;;1.73;;
13114;SDS011;6623;52.120;8.660;2023-08-06T12:50:31;3.03;;;1.40;;
13114;SDS011;6623;52.120;8.660;2023-08-06T12:52:57;4.10;;;1.80;;
13114;SDS011;6623;52.120;8.660;2023-08-06T12:55:23;2.17;;;1.40;;
13114;SDS011;6623;52.120;8.660;2023-08-06T12:57:48;3.30;;;1.50;;
13114;SDS011;6623;52.120;8.660;2023-08-06T13:00:14;2.47;;;1.40;;
13114;SDS011;6623;52.120;8.660;2023-08-06T13:02:39;2.83;;;1.40;;
13114;SDS011;6623;52.120;8.660;2023-08-06T13:05:05;2.07;;;1.37;;
13114;SDS011;6623;52.120;8.660;2023-08-06T13:07:32;3.10;;;1.43;;
13114;SDS011;6623;52.120;8.660;2023-08-06T13:09:57;2.20;;;1.30;;
13114;SDS011;6623;52.120;8.660;2023-08-06T13:12:23;2.27;;;1.60;;
13114;SDS011;6623;52.120;8.660;2023-08-06T13:14:48;2.43;;;1.37;;
13114;SDS011;6623;52.120;8.660;2023-08-06T13:17:14;2.27;;;1.50;;
13114;SDS011;6623;52.120;8.660;2023-08-06T13:19:39;2.03;;;1.63;;
13114;SDS011;6623;52.120;8.660;2023-08-06T13:22:05;2.60;;;1.50;;
13114;SDS011;6623;52.120;8.660;2023-08-06T13:24:33;1.87;;;1.50;;
13114;SDS011;6623;52.120;8.660;2023-08-06T13:26:59;2.00;;;1.33;;
13114;SDS011;6623;52.120;8.660;2023-08-06T13:29:25;3.30;;;1.40;;
13114;SDS011;6623;52.120;8.660;2023-08-06T13:31:52;2.27;;;1.30;;
13114;SDS011;6623;52.120;8.660;2023-08-06T13:34:18;2.07;;;1.30;;
13114;SDS011;6623;52.120;8.660;2023-08-06T13:36:43;2.80;;;1.30;;
13114;SDS011;6623;52.120;8.660;2023-08-06T13:39:09;2.47;;;1.50;;
13114;SDS011;6623;52.120;8.660;2023-08-06T13:41:35;1.90;;;1.40;;
13114;SDS011;6623;52.120;8.660;2023-08-06T13:44:02;1.53;;;1.20;;
13114;SDS011;6623;52.120;8.660;2023-08-06T13:46:27;3.03;;;1.43;;
13114;SDS011;6623;52.120;8.660;2023-08-06T13:48:53;2.63;;;1.30;;
13114;SDS011;6623;52.120;8.660;2023-08-06T13:51:19;1.43;;;1.10;;
13114;SDS011;6623;52.120;8.660;2023-08-06T13:53:44;2.53;;;1.40;;
13114;SDS011;6623;52.120;8.660;2023-08-06T13:56:10;2.47;;;1.40;;
13114;SDS011;6623;52.120;8.660;2023-08-06T13:58:36;3.23;;;1.50;;
13114;SDS011;6623;52.120;8.660;2023-08-06T14:01:02;3.37;;;1.30;;
13114;SDS011;6623;52.120;8.660;2023-08-06T14:03:27;2.17;;;1.30;;
13114;SDS011;6623;52.120;8.660;2023-08-06T14:05:53;1.40;;;1.20;;
13114;SDS011;6623;52.120;8.660;2023-08-06T14:08:22;2.87;;;1.40;;
13114;SDS011;6623;52.120;8.660;2023-08-06T14:10:53;2.63;;;1.30;;
13114;SDS011;6623;52.120;8.660;2023-08-06T14:13:20;1.63;;;1.27;;
13114;SDS011;6623;52.120;8.660;2023-08-06T14:15:47;2.30;;;1.30;;
13114;SDS011;6623;52.120;8.660;2023-08-06T14:18:13;2.97;;;1.43;;
13114;SDS011;6623;52.120;8.660;2023-08-06T14:20:39;1.50;;;1.23;;
13114;SDS011;6623;52.120;8.660;2023-08-06T14:23:06;2.97;;;1.40;;
13114;SDS011;6623;52.120;8.660;2023-08-06T14:25:31;1.67;;;1.30;;
13114;SDS011;6623;52.120;8.660;2023-08-06T14:27:57;2.23;;;1.40;;
13114;SDS011;6623;52.120;8.660;2023-08-06T14:30:22;1.77;;;1.20;;
13114;SDS011;6623;52.120;8.660;2023-08-06T14:32:48;1.93;;;1.30;;
13114;SDS011;6623;52.120;8.660;2023-08-06T14:35:14;2.37;;;1.50;;
13114;SDS011;6623;52.120;8.660;2023-08-06T14:37:39;1.73;;;1.40;;
13114;SDS011;6623;52.120;8.660;2023-08-06T14:40:06;1.50;;;1.13;;
13114;SDS011;6623;52.120;8.660;2023-08-06T14:42:32;2.40;;;1.23;;
13114;SDS011;6623;52.120;8.660;2023-08-06T14:44:57;2.10;;;1.20;;
13114;SDS011;6623;52.120;8.660;2023-08-06T14:47:23;2.33;;;1.30;;
13114;SDS011;6623;52.120;8.660;2023-08-06T14:49:49;1.37;;;1.17;;
13114;SDS011;6623;52.120;8.660;2023-08-06T14:52:15;2.23;;;1.20;;
13114;SDS011;6623;52.120;8.660;2023-08-06T14:54:41;2.27;;;1.30;;
13114;SDS011;6623;52.120;8.660;2023-08-06T14:57:07;2.00;;;1.20;;
13114;SDS011;6623;52.120;8.660;2023-08-06T14:59:34;1.80;;;1.23;;
13114;SDS011;6623;52.120;8.660;2023-08-06T15:02:00;1.50;;;1.20;;
13114;SDS011;6623;52.120;8.660;2023-08-06T15:04:25;1.60;;;1.20;;
13114;SDS011;6623;52.120;8.660;2023-08-06T15:06:51;2.03;;;1.40;;
13114;SDS011;6623;52.120;8.660;2023-08-06T15:09:17;1.27;;;1.17;;
13114;SDS011;6623;52.120;8.660;2023-08-06T15:11:42;1.20;;;1.10;;
13114;SDS011;6623;52.120;8.660;2023-08-06T15:14:08;1.87;;;1.30;;
13114;SDS011;6623;52.120;8.660;2023-08-06T15:16:33;1.37;;;1.10;;